sensor_id;sensor_type;location;lat;lon;timestamp;pressure;altitude;pressure_sealevel;temperature
68588;BMP180;55560;52.174;20.996;2023-06-26T00:01:47;100504.40;;;17.80
68588;BMP180;55560;52.174;20.996;2023-06-26T00:04:15;100501.80;;;17.70
68588;BMP180;55560;52.174;20.996;2023-06-26T00:06:43;100501.20;;;17.70
68588;BMP180;55560;52.174;20.996;2023-06-26T00:09:11;100499.60;;;17.70
68588;BMP180;55560;52.174;20.996;2023-06-26T00:11:40;100503.00;;;17.70
68588;BMP180;55560;52.174;20.996;2023-06-26T00:14:08;100500.20;;;17.70
68588;BMP180;55560;52.174;20.996;2023-06-26T00:16:36;100497.80;;;17.70
68588;BMP180;55560;52.174;20.996;2023-06-26T00:19:04;100501.80;;;17.70
68588;BMP180;55560;52.174;20.996;2023-06-26T00:21:32;100499.60;;;17.60
68588;BMP180;55560;52.174;20.996;2023-06-26T00:23:59;100501.40;;;17.60
68588;BMP180;55560;52.174;20.996;2023-06-26T00:26:27;100501.20;;;17.60
68588;BMP180;55560;52.174;20.996;2023-06-26T00:28:55;100507.00;;;17.60
68588;BMP180;55560;52.174;20.996;2023-06-26T00:31:23;100506.00;;;17.60
68588;BMP180;55560;52.174;20.996;2023-06-26T00:33:51;100501.40;;;17.60
68588;BMP180;55560;52.174;20.996;2023-06-26T00:36:19;100507.20;;;17.50
68588;BMP180;55560;52.174;20.996;2023-06-26T00:38:47;100505.20;;;17.50
68588;BMP180;55560;52.174;20.996;2023-06-26T00:41:15;100501.80;;;17.42
68588;BMP180;55560;52.174;20.996;2023-06-26T00:43:44;100501.40;;;17.40
68588;BMP180;55560;52.174;20.996;2023-06-26T00:46:13;100498.00;;;17.40
68588;BMP180;55560;52.174;20.996;2023-06-26T00:48:44;100498.80;;;17.40
68588;BMP180;55560;52.174;20.996;2023-06-26T00:51:13;100493.00;;;17.40
68588;BMP180;55560;52.174;20.996;2023-06-26T00:53:42;100496.40;;;17.36
68588;BMP180;55560;52.174;20.996;2023-06-26T00:56:11;100491.60;;;17.30
68588;BMP180;55560;52.174;20.996;2023-06-26T00:58:39;100496.80;;;17.30
68588;BMP180;55560;52.174;20.996;2023-06-26T01:01:07;100495.60;;;17.20
68588;BMP180;55560;52.174;20.996;2023-06-26T01:03:36;100488.20;;;17.20
68588;BMP180;55560;52.174;20.996;2023-06-26T01:06:09;100486.20;;;17.20
68588;BMP180;55560;52.174;20.996;2023-06-26T01:08:41;100487.00;;;17.20
68588;BMP180;55560;52.174;20.996;2023-06-26T01:11:09;100488.40;;;17.16
68588;BMP180;55560;52.174;20.996;2023-06-26T01:13:39;100487.00;;;17.10
68588;BMP180;55560;52.174;20.996;2023-06-26T01:16:08;100487.80;;;17.10
68588;BMP180;55560;52.174;20.996;2023-06-26T01:18:38;100484.40;;;17.10
68588;BMP180;55560;52.174;20.996;2023-06-26T01:21:11;100481.80;;;17.10
68588;BMP180;55560;52.174;20.996;2023-06-26T01:23:57;100484.20;;;17.10
68588;BMP180;55560;52.174;20.996;2023-06-26T01:26:29;100479.80;;;17.00
68588;BMP180;55560;52.174;20.996;2023-06-26T01:28:58;100477.80;;;17.00
68588;BMP180;55560;52.174;20.996;2023-06-26T01:31:28;100482.80;;;17.00
68588;BMP180;55560;52.174;20.996;2023-06-26T01:33:59;100481.20;;;17.00
68588;BMP180;55560;52.174;20.996;2023-06-26T01:36:28;100479.20;;;16.90
68588;BMP180;55560;52.174;20.996;2023-06-26T01:38:56;100474.00;;;16.90
68588;BMP180;55560;52.174;20.996;2023-06-26T01:41:24;100472.60;;;16.88
68588;BMP180;55560;52.174;20.996;2023-06-26T01:47:03;100467.80;;;16.80
68588;BMP180;55560;52.174;20.996;2023-06-26T01:52:42;100463.00;;;16.78
68588;BMP180;55560;52.174;20.996;2023-06-26T01:55:32;100466.00;;;16.70
68588;BMP180;55560;52.174;20.996;2023-06-26T01:58:03;100461.20;;;16.70
68588;BMP180;55560;52.174;20.996;2023-06-26T02:00:32;100462.40;;;16.70
68588;BMP180;55560;52.174;20.996;2023-06-26T02:03:02;100460.20;;;16.70
68588;BMP180;55560;52.174;20.996;2023-06-26T02:05:32;100458.20;;;16.64
68588;BMP180;55560;52.174;20.996;2023-06-26T02:08:01;100456.20;;;16.60
68588;BMP180;55560;52.174;20.996;2023-06-26T02:10:30;100453.40;;;16.60
68588;BMP180;55560;52.174;20.996;2023-06-26T02:13:00;100460.00;;;16.58
68588;BMP180;55560;52.174;20.996;2023-06-26T02:15:28;100460.00;;;16.54
68588;BMP180;55560;52.174;20.996;2023-06-26T02:17:56;100455.40;;;16.50
68588;BMP180;55560;52.174;20.996;2023-06-26T02:20:24;100458.20;;;16.50
68588;BMP180;55560;52.174;20.996;2023-06-26T02:22:52;100459.20;;;16.50
68588;BMP180;55560;52.174;20.996;2023-06-26T02:25:20;100460.00;;;16.50
68588;BMP180;55560;52.174;20.996;2023-06-26T02:27:48;100456.60;;;16.50
68588;BMP180;55560;52.174;20.996;2023-06-26T02:30:16;100455.80;;;16.46
68588;BMP180;55560;52.174;20.996;2023-06-26T02:32:44;100456.20;;;16.44
68588;BMP180;55560;52.174;20.996;2023-06-26T02:35:13;100454.00;;;16.42
68588;BMP180;55560;52.174;20.996;2023-06-26T02:37:44;100451.60;;;16.40
68588;BMP180;55560;52.174;20.996;2023-06-26T02:40:13;100445.60;;;16.40
68588;BMP180;55560;52.174;20.996;2023-06-26T02:42:41;100448.20;;;16.40
68588;BMP180;55560;52.174;20.996;2023-06-26T02:45:09;100444.20;;;16.40
68588;BMP180;55560;52.174;20.996;2023-06-26T02:47:37;100445.80;;;16.34
68588;BMP180;55560;52.174;20.996;2023-06-26T02:50:09;100446.20;;;16.30
68588;BMP180;55560;52.174;20.996;2023-06-26T02:52:57;100448.20;;;16.30
68588;BMP180;55560;52.174;20.996;2023-06-26T02:55:26;100449.60;;;16.30
68588;BMP180;55560;52.174;20.996;2023-06-26T02:57:55;100447.00;;;16.30
68588;BMP180;55560;52.174;20.996;2023-06-26T03:00:23;100446.80;;;16.30
68588;BMP180;55560;52.174;20.996;2023-06-26T03:02:52;100449.20;;;16.30
68588;BMP180;55560;52.174;20.996;2023-06-26T03:05:21;100448.80;;;16.30
68588;BMP180;55560;52.174;20.996;2023-06-26T03:07:48;100446.00;;;16.30
68588;BMP180;55560;52.174;20.996;2023-06-26T03:10:17;100445.20;;;16.30
68588;BMP180;55560;52.174;20.996;2023-06-26T03:12:45;100443.60;;;16.30
68588;BMP180;55560;52.174;20.996;2023-06-26T03:15:13;100448.40;;;16.30
68588;BMP180;55560;52.174;20.996;2023-06-26T03:17:41;100448.00;;;16.34
68588;BMP180;55560;52.174;20.996;2023-06-26T03:20:12;100447.80;;;16.38
68588;BMP180;55560;52.174;20.996;2023-06-26T03:22:48;100449.60;;;16.36
68588;BMP180;55560;52.174;20.996;2023-06-26T03:25:17;100447.80;;;16.40
68588;BMP180;55560;52.174;20.996;2023-06-26T03:27:45;100448.80;;;16.40
68588;BMP180;55560;52.174;20.996;2023-06-26T03:30:14;100451.80;;;16.46
68588;BMP180;55560;52.174;20.996;2023-06-26T03:32:42;100449.60;;;16.50
68588;BMP180;55560;52.174;20.996;2023-06-26T03:35:11;100452.60;;;16.50
68588;BMP180;55560;52.174;20.996;2023-06-26T03:37:39;100450.20;;;16.50
68588;BMP180;55560;52.174;20.996;2023-06-26T03:40:09;100448.20;;;16.60
68588;BMP180;55560;52.174;20.996;2023-06-26T03:42:37;100449.60;;;16.60
68588;BMP180;55560;52.174;20.996;2023-06-26T03:45:05;100454.00;;;16.70
68588;BMP180;55560;52.174;20.996;2023-06-26T03:47:34;100451.00;;;16.70
68588;BMP180;55560;52.174;20.996;2023-06-26T03:50:03;100450.40;;;16.80
68588;BMP180;55560;52.174;20.996;2023-06-26T03:52:31;100448.80;;;16.80
68588;BMP180;55560;52.174;20.996;2023-06-26T03:55:00;100447.80;;;16.90
68588;BMP180;55560;52.174;20.996;2023-06-26T03:57:28;100452.20;;;16.94
68588;BMP180;55560;52.174;20.996;2023-06-26T03:59:56;100452.20;;;17.00
68588;BMP180;55560;52.174;20.996;2023-06-26T04:02:24;100452.60;;;17.10
68588;BMP180;55560;52.174;20.996;2023-06-26T04:04:52;100456.20;;;17.20
68588;BMP180;55560;52.174;20.996;2023-06-26T04:07:21;100449.60;;;17.20
68588;BMP180;55560;52.174;20.996;2023-06-26T04:09:49;100450.80;;;17.30
68588;BMP180;55560;52.174;20.996;2023-06-26T04:12:17;100445.40;;;17.36
68588;BMP180;55560;52.174;20.996;2023-06-26T04:14:45;100447.80;;;17.40
68588;BMP180;55560;52.174;20.996;2023-06-26T04:17:13;100458.40;;;17.50
68588;BMP180;55560;52.174;20.996;2023-06-26T04:19:41;100454.80;;;17.60
68588;BMP180;55560;52.174;20.996;2023-06-26T04:22:09;100455.40;;;17.68
68588;BMP180;55560;52.174;20.996;2023-06-26T04:24:37;100456.20;;;17.72
68588;BMP180;55560;52.174;20.996;2023-06-26T04:27:05;100456.60;;;17.84
68588;BMP180;55560;52.174;20.996;2023-06-26T04:29:34;100451.00;;;17.98
68588;BMP180;55560;52.174;20.996;2023-06-26T04:32:02;100454.00;;;18.08
68588;BMP180;55560;52.174;20.996;2023-06-26T04:34:31;100454.20;;;18.26
68588;BMP180;55560;52.174;20.996;2023-06-26T04:37:02;100449.40;;;18.60
68588;BMP180;55560;52.174;20.996;2023-06-26T04:39:31;100455.60;;;19.34
68588;BMP180;55560;52.174;20.996;2023-06-26T04:41:59;100456.60;;;19.78
68588;BMP180;55560;52.174;20.996;2023-06-26T04:44:27;100459.00;;;20.36
68588;BMP180;55560;52.174;20.996;2023-06-26T04:46:55;100447.20;;;21.14
68588;BMP180;55560;52.174;20.996;2023-06-26T04:49:23;100451.20;;;21.92
68588;BMP180;55560;52.174;20.996;2023-06-26T04:51:51;100454.40;;;22.30
68588;BMP180;55560;52.174;20.996;2023-06-26T04:54:20;100453.20;;;22.68
68588;BMP180;55560;52.174;20.996;2023-06-26T04:56:48;100455.60;;;22.90
68588;BMP180;55560;52.174;20.996;2023-06-26T04:59:16;100455.60;;;22.90
68588;BMP180;55560;52.174;20.996;2023-06-26T05:01:44;100452.40;;;22.70
68588;BMP180;55560;52.174;20.996;2023-06-26T05:04:16;100454.00;;;22.84
68588;BMP180;55560;52.174;20.996;2023-06-26T05:06:44;100452.60;;;23.16
68588;BMP180;55560;52.174;20.996;2023-06-26T05:09:11;100459.40;;;23.30
68588;BMP180;55560;52.174;20.996;2023-06-26T05:11:39;100461.00;;;23.48
68588;BMP180;55560;52.174;20.996;2023-06-26T05:14:07;100460.40;;;23.58
68588;BMP180;55560;52.174;20.996;2023-06-26T05:16:36;100465.20;;;23.30
68588;BMP180;55560;52.174;20.996;2023-06-26T05:19:04;100457.20;;;23.02
68588;BMP180;55560;52.174;20.996;2023-06-26T05:21:32;100463.80;;;22.80
68588;BMP180;55560;52.174;20.996;2023-06-26T05:24:02;100456.80;;;22.60
68588;BMP180;55560;52.174;20.996;2023-06-26T05:26:31;100458.20;;;22.50
68588;BMP180;55560;52.174;20.996;2023-06-26T05:29:00;100457.20;;;22.46
68588;BMP180;55560;52.174;20.996;2023-06-26T05:31:31;100448.60;;;22.62
68588;BMP180;55560;52.174;20.996;2023-06-26T05:34:03;100447.80;;;22.92
68588;BMP180;55560;52.174;20.996;2023-06-26T05:36:33;100447.80;;;23.46
68588;BMP180;55560;52.174;20.996;2023-06-26T05:39:02;100449.40;;;24.28
68588;BMP180;55560;52.174;20.996;2023-06-26T05:41:30;100449.80;;;24.70
68588;BMP180;55560;52.174;20.996;2023-06-26T05:43:58;100446.60;;;25.40
68588;BMP180;55560;52.174;20.996;2023-06-26T05:46:26;100451.20;;;26.08
68588;BMP180;55560;52.174;20.996;2023-06-26T05:48:54;100454.20;;;26.30
68588;BMP180;55560;52.174;20.996;2023-06-26T05:51:23;100454.20;;;26.48
68588;BMP180;55560;52.174;20.996;2023-06-26T05:53:51;100452.20;;;26.60
68588;BMP180;55560;52.174;20.996;2023-06-26T05:56:20;100447.00;;;26.60
68588;BMP180;55560;52.174;20.996;2023-06-26T05:58:48;100450.60;;;26.80
68588;BMP180;55560;52.174;20.996;2023-06-26T06:01:17;100445.40;;;27.00
68588;BMP180;55560;52.174;20.996;2023-06-26T06:03:45;100441.00;;;27.34
68588;BMP180;55560;52.174;20.996;2023-06-26T06:06:13;100447.40;;;27.50
68588;BMP180;55560;52.174;20.996;2023-06-26T06:08:41;100444.20;;;27.50
68588;BMP180;55560;52.174;20.996;2023-06-26T06:11:11;100444.20;;;27.60
68588;BMP180;55560;52.174;20.996;2023-06-26T06:13:39;100441.40;;;27.38
68588;BMP180;55560;52.174;20.996;2023-06-26T06:16:07;100441.20;;;27.02
68588;BMP180;55560;52.174;20.996;2023-06-26T06:18:35;100439.20;;;26.76
68588;BMP180;55560;52.174;20.996;2023-06-26T06:21:03;100440.20;;;26.46
68588;BMP180;55560;52.174;20.996;2023-06-26T06:23:30;100439.20;;;26.20
68588;BMP180;55560;52.174;20.996;2023-06-26T06:25:58;100436.20;;;25.98
68588;BMP180;55560;52.174;20.996;2023-06-26T06:28:26;100437.20;;;25.80
68588;BMP180;55560;52.174;20.996;2023-06-26T06:30:54;100440.80;;;25.70
68588;BMP180;55560;52.174;20.996;2023-06-26T06:33:22;100436.80;;;25.50
68588;BMP180;55560;52.174;20.996;2023-06-26T06:35:50;100434.40;;;25.50
68588;BMP180;55560;52.174;20.996;2023-06-26T06:38:18;100431.80;;;25.40
68588;BMP180;55560;52.174;20.996;2023-06-26T06:40:46;100431.60;;;25.34
68588;BMP180;55560;52.174;20.996;2023-06-26T06:43:13;100430.80;;;25.20
68588;BMP180;55560;52.174;20.996;2023-06-26T06:45:41;100432.60;;;25.10
68588;BMP180;55560;52.174;20.996;2023-06-26T06:48:09;100434.00;;;25.10
68588;BMP180;55560;52.174;20.996;2023-06-26T06:50:37;100434.20;;;25.00
68588;BMP180;55560;52.174;20.996;2023-06-26T06:53:07;100427.60;;;25.00
68588;BMP180;55560;52.174;20.996;2023-06-26T06:55:35;100429.00;;;24.90
68588;BMP180;55560;52.174;20.996;2023-06-26T06:58:04;100430.00;;;24.90
68588;BMP180;55560;52.174;20.996;2023-06-26T07:00:32;100426.20;;;24.90
68588;BMP180;55560;52.174;20.996;2023-06-26T07:03:00;100426.40;;;24.90
68588;BMP180;55560;52.174;20.996;2023-06-26T07:05:28;100428.80;;;24.92
68588;BMP180;55560;52.174;20.996;2023-06-26T07:07:56;100427.40;;;25.00
68588;BMP180;55560;52.174;20.996;2023-06-26T07:10:29;100427.20;;;25.10
68588;BMP180;55560;52.174;20.996;2023-06-26T07:12:57;100419.40;;;25.10
68588;BMP180;55560;52.174;20.996;2023-06-26T07:15:24;100421.00;;;25.10
68588;BMP180;55560;52.174;20.996;2023-06-26T07:17:54;100421.20;;;25.10
68588;BMP180;55560;52.174;20.996;2023-06-26T07:20:22;100421.00;;;25.20
68588;BMP180;55560;52.174;20.996;2023-06-26T07:22:50;100419.80;;;25.30
68588;BMP180;55560;52.174;20.996;2023-06-26T07:25:18;100422.60;;;25.40
68588;BMP180;55560;52.174;20.996;2023-06-26T07:27:46;100419.60;;;25.40
68588;BMP180;55560;52.174;20.996;2023-06-26T07:30:13;100418.80;;;25.42
68588;BMP180;55560;52.174;20.996;2023-06-26T07:32:44;100419.80;;;25.44
68588;BMP180;55560;52.174;20.996;2023-06-26T07:35:12;100418.60;;;25.50
68588;BMP180;55560;52.174;20.996;2023-06-26T07:37:42;100414.80;;;25.50
68588;BMP180;55560;52.174;20.996;2023-06-26T07:40:10;100416.80;;;25.50
68588;BMP180;55560;52.174;20.996;2023-06-26T07:42:41;100416.60;;;25.50
68588;BMP180;55560;52.174;20.996;2023-06-26T07:45:09;100415.60;;;25.50
68588;BMP180;55560;52.174;20.996;2023-06-26T07:47:40;100416.00;;;25.60
68588;BMP180;55560;52.174;20.996;2023-06-26T07:50:08;100416.80;;;25.68
68588;BMP180;55560;52.174;20.996;2023-06-26T07:52:37;100416.60;;;25.70
68588;BMP180;55560;52.174;20.996;2023-06-26T07:55:05;100418.40;;;25.70
68588;BMP180;55560;52.174;20.996;2023-06-26T07:57:33;100417.80;;;25.76
68588;BMP180;55560;52.174;20.996;2023-06-26T08:00:01;100420.20;;;25.80
68588;BMP180;55560;52.174;20.996;2023-06-26T08:02:40;100418.20;;;25.70
68588;BMP180;55560;52.174;20.996;2023-06-26T08:05:08;100411.80;;;25.80
68588;BMP180;55560;52.174;20.996;2023-06-26T08:07:37;100416.60;;;25.70
68588;BMP180;55560;52.174;20.996;2023-06-26T08:10:05;100414.00;;;25.80
68588;BMP180;55560;52.174;20.996;2023-06-26T08:12:33;100416.60;;;25.80
68588;BMP180;55560;52.174;20.996;2023-06-26T08:15:01;100414.00;;;25.74
68588;BMP180;55560;52.174;20.996;2023-06-26T08:17:30;100411.80;;;25.80
68588;BMP180;55560;52.174;20.996;2023-06-26T08:19:59;100416.00;;;25.80
68588;BMP180;55560;52.174;20.996;2023-06-26T08:22:27;100414.00;;;25.80
68588;BMP180;55560;52.174;20.996;2023-06-26T08:24:54;100415.40;;;25.82
68588;BMP180;55560;52.174;20.996;2023-06-26T08:27:22;100410.00;;;25.90
68588;BMP180;55560;52.174;20.996;2023-06-26T08:29:50;100411.40;;;25.94
68588;BMP180;55560;52.174;20.996;2023-06-26T08:32:18;100408.60;;;26.00
68588;BMP180;55560;52.174;20.996;2023-06-26T08:34:46;100408.00;;;26.00
68588;BMP180;55560;52.174;20.996;2023-06-26T08:37:16;100403.00;;;26.00
68588;BMP180;55560;52.174;20.996;2023-06-26T08:39:44;100405.60;;;26.10
68588;BMP180;55560;52.174;20.996;2023-06-26T08:42:13;100400.60;;;26.10
68588;BMP180;55560;52.174;20.996;2023-06-26T08:44:41;100398.00;;;26.12
68588;BMP180;55560;52.174;20.996;2023-06-26T08:47:24;100402.60;;;26.10
68588;BMP180;55560;52.174;20.996;2023-06-26T08:50:10;100404.20;;;26.10
68588;BMP180;55560;52.174;20.996;2023-06-26T08:55:31;100403.00;;;26.20
68588;BMP180;55560;52.174;20.996;2023-06-26T08:58:01;100400.80;;;26.20
68588;BMP180;55560;52.174;20.996;2023-06-26T09:00:30;100396.20;;;26.30
68588;BMP180;55560;52.174;20.996;2023-06-26T09:02:59;100396.00;;;26.30
68588;BMP180;55560;52.174;20.996;2023-06-26T09:05:27;100392.40;;;26.40
68588;BMP180;55560;52.174;20.996;2023-06-26T09:07:55;100395.60;;;26.42
68588;BMP180;55560;52.174;20.996;2023-06-26T09:10:26;100389.80;;;26.60
68588;BMP180;55560;52.174;20.996;2023-06-26T09:12:57;100393.80;;;26.60
68588;BMP180;55560;52.174;20.996;2023-06-26T09:15:25;100392.60;;;26.60
68588;BMP180;55560;52.174;20.996;2023-06-26T09:17:56;100391.40;;;26.64
68588;BMP180;55560;52.174;20.996;2023-06-26T09:20:28;100392.20;;;26.70
68588;BMP180;55560;52.174;20.996;2023-06-26T09:22:59;100388.20;;;26.86
68588;BMP180;55560;52.174;20.996;2023-06-26T09:25:28;100387.40;;;26.90
68588;BMP180;55560;52.174;20.996;2023-06-26T09:27:56;100385.60;;;26.90
68588;BMP180;55560;52.174;20.996;2023-06-26T09:30:25;100384.20;;;26.90
68588;BMP180;55560;52.174;20.996;2023-06-26T09:32:54;100387.40;;;26.84
68588;BMP180;55560;52.174;20.996;2023-06-26T09:35:23;100381.00;;;26.70
68588;BMP180;55560;52.174;20.996;2023-06-26T09:37:51;100385.60;;;26.62
68588;BMP180;55560;52.174;20.996;2023-06-26T09:40:20;100380.80;;;26.60
68588;BMP180;55560;52.174;20.996;2023-06-26T09:42:47;100377.20;;;26.68
68588;BMP180;55560;52.174;20.996;2023-06-26T09:45:19;100375.80;;;26.70
68588;BMP180;55560;52.174;20.996;2023-06-26T09:47:48;100382.60;;;26.80
68588;BMP180;55560;52.174;20.996;2023-06-26T09:50:23;100381.00;;;26.90
68588;BMP180;55560;52.174;20.996;2023-06-26T09:52:54;100382.20;;;27.00
68588;BMP180;55560;52.174;20.996;2023-06-26T09:55:23;100383.40;;;27.00
68588;BMP180;55560;52.174;20.996;2023-06-26T09:57:51;100374.60;;;27.02
68588;BMP180;55560;52.174;20.996;2023-06-26T10:00:20;100372.00;;;27.00
68588;BMP180;55560;52.174;20.996;2023-06-26T10:02:48;100375.00;;;27.00
68588;BMP180;55560;52.174;20.996;2023-06-26T10:05:16;100375.60;;;26.90
68588;BMP180;55560;52.174;20.996;2023-06-26T10:07:45;100371.20;;;26.90
68588;BMP180;55560;52.174;20.996;2023-06-26T10:10:16;100373.60;;;26.90
68588;BMP180;55560;52.174;20.996;2023-06-26T10:12:47;100373.00;;;27.00
68588;BMP180;55560;52.174;20.996;2023-06-26T10:15:16;100380.40;;;26.86
68588;BMP180;55560;52.174;20.996;2023-06-26T10:17:46;100371.80;;;26.80
68588;BMP180;55560;52.174;20.996;2023-06-26T10:20:15;100368.40;;;26.70
68588;BMP180;55560;52.174;20.996;2023-06-26T10:22:46;100371.00;;;26.60
68588;BMP180;55560;52.174;20.996;2023-06-26T10:25:19;100367.40;;;26.60
68588;BMP180;55560;52.174;20.996;2023-06-26T10:27:57;100364.20;;;26.50
68588;BMP180;55560;52.174;20.996;2023-06-26T10:30:33;100359.60;;;26.60
68588;BMP180;55560;52.174;20.996;2023-06-26T10:33:03;100359.00;;;26.66
68588;BMP180;55560;52.174;20.996;2023-06-26T10:35:31;100362.20;;;26.70
68588;BMP180;55560;52.174;20.996;2023-06-26T10:38:02;100359.00;;;26.80
68588;BMP180;55560;52.174;20.996;2023-06-26T10:40:47;100351.20;;;26.88
68588;BMP180;55560;52.174;20.996;2023-06-26T10:43:16;100341.40;;;27.00
68588;BMP180;55560;52.174;20.996;2023-06-26T10:45:48;100336.80;;;27.10
68588;BMP180;55560;52.174;20.996;2023-06-26T10:48:22;100338.80;;;27.20
68588;BMP180;55560;52.174;20.996;2023-06-26T10:50:50;100334.20;;;27.30
68588;BMP180;55560;52.174;20.996;2023-06-26T10:56:02;100337.80;;;27.40
68588;BMP180;55560;52.174;20.996;2023-06-26T10:58:43;100336.60;;;27.30
68588;BMP180;55560;52.174;20.996;2023-06-26T11:01:18;100337.20;;;27.30
68588;BMP180;55560;52.174;20.996;2023-06-26T11:04:01;100334.00;;;27.40
68588;BMP180;55560;52.174;20.996;2023-06-26T11:06:31;100331.40;;;27.50
68588;BMP180;55560;52.174;20.996;2023-06-26T11:14:25;100323.60;;;27.60
68588;BMP180;55560;52.174;20.996;2023-06-26T11:16:57;100330.00;;;27.60
68588;BMP180;55560;52.174;20.996;2023-06-26T11:19:27;100330.20;;;27.52
68588;BMP180;55560;52.174;20.996;2023-06-26T11:22:02;100319.80;;;27.52
68588;BMP180;55560;52.174;20.996;2023-06-26T11:24:31;100316.80;;;27.60
68588;BMP180;55560;52.174;20.996;2023-06-26T11:27:01;100311.40;;;27.60
68588;BMP180;55560;52.174;20.996;2023-06-26T11:29:31;100308.00;;;27.60
68588;BMP180;55560;52.174;20.996;2023-06-26T11:32:02;100311.40;;;27.70
68588;BMP180;55560;52.174;20.996;2023-06-26T11:34:33;100313.80;;;27.72
68588;BMP180;55560;52.174;20.996;2023-06-26T11:37:01;100310.20;;;27.72
68588;BMP180;55560;52.174;20.996;2023-06-26T11:39:29;100306.00;;;27.80
68588;BMP180;55560;52.174;20.996;2023-06-26T11:41:59;100308.40;;;27.82
68588;BMP180;55560;52.174;20.996;2023-06-26T11:44:31;100307.20;;;27.92
68588;BMP180;55560;52.174;20.996;2023-06-26T11:46:59;100311.80;;;28.00
68588;BMP180;55560;52.174;20.996;2023-06-26T11:49:29;100306.40;;;28.10
68588;BMP180;55560;52.174;20.996;2023-06-26T11:51:57;100301.80;;;28.10
68588;BMP180;55560;52.174;20.996;2023-06-26T11:54:28;100300.80;;;28.10
68588;BMP180;55560;52.174;20.996;2023-06-26T11:56:58;100297.20;;;28.20
68588;BMP180;55560;52.174;20.996;2023-06-26T11:59:40;100297.20;;;28.24
68588;BMP180;55560;52.174;20.996;2023-06-26T12:02:13;100297.20;;;28.30
68588;BMP180;55560;52.174;20.996;2023-06-26T12:04:43;100299.60;;;28.40
68588;BMP180;55560;52.174;20.996;2023-06-26T12:07:12;100294.00;;;28.42
68588;BMP180;55560;52.174;20.996;2023-06-26T12:09:46;100287.00;;;28.56
68588;BMP180;55560;52.174;20.996;2023-06-26T12:12:17;100286.00;;;28.70
68588;BMP180;55560;52.174;20.996;2023-06-26T12:14:46;100279.40;;;28.80
68588;BMP180;55560;52.174;20.996;2023-06-26T12:17:14;100278.40;;;28.98
68588;BMP180;55560;52.174;20.996;2023-06-26T12:19:46;100272.80;;;29.10
68588;BMP180;55560;52.174;20.996;2023-06-26T12:22:19;100274.80;;;29.24
68588;BMP180;55560;52.174;20.996;2023-06-26T12:24:48;100272.80;;;29.40
68588;BMP180;55560;52.174;20.996;2023-06-26T12:27:18;100274.60;;;29.40
68588;BMP180;55560;52.174;20.996;2023-06-26T12:29:52;100270.00;;;29.50
68588;BMP180;55560;52.174;20.996;2023-06-26T12:32:25;100268.60;;;29.62
68588;BMP180;55560;52.174;20.996;2023-06-26T12:34:57;100270.80;;;29.80
68588;BMP180;55560;52.174;20.996;2023-06-26T12:37:25;100269.00;;;29.70
68588;BMP180;55560;52.174;20.996;2023-06-26T12:39:57;100267.00;;;29.64
68588;BMP180;55560;52.174;20.996;2023-06-26T12:42:28;100264.00;;;29.76
68588;BMP180;55560;52.174;20.996;2023-06-26T12:44:56;100271.20;;;29.98
68588;BMP180;55560;52.174;20.996;2023-06-26T12:47:27;100273.60;;;30.00
68588;BMP180;55560;52.174;20.996;2023-06-26T12:49:56;100268.80;;;30.08
68588;BMP180;55560;52.174;20.996;2023-06-26T12:52:27;100257.80;;;30.30
68588;BMP180;55560;52.174;20.996;2023-06-26T12:54:55;100258.80;;;30.50
68588;BMP180;55560;52.174;20.996;2023-06-26T12:57:25;100258.60;;;30.80
68588;BMP180;55560;52.174;20.996;2023-06-26T12:59:54;100258.40;;;30.90
68588;BMP180;55560;52.174;20.996;2023-06-26T13:02:22;100256.60;;;30.80
68588;BMP180;55560;52.174;20.996;2023-06-26T13:04:50;100247.60;;;30.90
68588;BMP180;55560;52.174;20.996;2023-06-26T13:07:18;100245.60;;;31.10
68588;BMP180;55560;52.174;20.996;2023-06-26T13:09:46;100240.60;;;31.20
68588;BMP180;55560;52.174;20.996;2023-06-26T13:12:16;100236.60;;;31.32
68588;BMP180;55560;52.174;20.996;2023-06-26T13:14:45;100238.80;;;31.50
68588;BMP180;55560;52.174;20.996;2023-06-26T13:17:13;100235.60;;;31.50
68588;BMP180;55560;52.174;20.996;2023-06-26T13:19:41;100234.40;;;31.50
68588;BMP180;55560;52.174;20.996;2023-06-26T13:22:09;100231.20;;;31.34
68588;BMP180;55560;52.174;20.996;2023-06-26T13:24:37;100233.80;;;31.40
68588;BMP180;55560;52.174;20.996;2023-06-26T13:27:05;100226.80;;;31.30
68588;BMP180;55560;52.174;20.996;2023-06-26T13:29:33;100227.20;;;31.32
68588;BMP180;55560;52.174;20.996;2023-06-26T13:32:01;100223.60;;;31.40
68588;BMP180;55560;52.174;20.996;2023-06-26T13:34:29;100224.40;;;31.30
68588;BMP180;55560;52.174;20.996;2023-06-26T13:36:57;100222.00;;;31.14
68588;BMP180;55560;52.174;20.996;2023-06-26T13:39:28;100226.00;;;31.06
68588;BMP180;55560;52.174;20.996;2023-06-26T13:41:56;100223.20;;;30.82
68588;BMP180;55560;52.174;20.996;2023-06-26T13:44:24;100222.80;;;30.60
68588;BMP180;55560;52.174;20.996;2023-06-26T13:47:02;100218.80;;;30.40
68588;BMP180;55560;52.174;20.996;2023-06-26T13:49:31;100206.80;;;30.30
68588;BMP180;55560;52.174;20.996;2023-06-26T13:51:58;100202.40;;;30.30
68588;BMP180;55560;52.174;20.996;2023-06-26T13:54:26;100202.40;;;30.40
68588;BMP180;55560;52.174;20.996;2023-06-26T13:56:54;100190.80;;;30.36
68588;BMP180;55560;52.174;20.996;2023-06-26T13:59:26;100187.40;;;30.92
68588;BMP180;55560;52.174;20.996;2023-06-26T14:01:55;100183.60;;;31.62
68588;BMP180;55560;52.174;20.996;2023-06-26T14:04:23;100191.60;;;32.32
68588;BMP180;55560;52.174;20.996;2023-06-26T14:06:52;100190.60;;;32.50
68588;BMP180;55560;52.174;20.996;2023-06-26T14:09:20;100187.60;;;32.24
68588;BMP180;55560;52.174;20.996;2023-06-26T14:11:48;100187.00;;;32.40
68588;BMP180;55560;52.174;20.996;2023-06-26T14:14:17;100183.80;;;32.86